sensor_id;sensor_type;location;lat;lon;timestamp;P1;durP1;ratioP1;P2;durP2;ratioP2
44139;SDS011;29803;51.048;4.686;2024-03-08T00:00:00;59.33;;;22.48;;
44139;SDS011;29803;51.048;4.686;2024-03-08T00:02:39;60.53;;;22.52;;
44139;SDS011;29803;51.048;4.686;2024-03-08T00:05:10;60.22;;;23.63;;
44139;SDS011;29803;51.048;4.686;2024-03-08T00:07:41;58.65;;;21.85;;
44139;SDS011;29803;51.048;4.686;2024-03-08T00:10:12;52.95;;;21.92;;
44139;SDS011;29803;51.048;4.686;2024-03-08T00:12:43;59.13;;;22.27;;
44139;SDS011;29803;51.048;4.686;2024-03-08T00:15:16;57.88;;;22.77;;
44139;SDS011;29803;51.048;4.686;2024-03-08T00:17:47;54.08;;;22.33;;
44139;SDS011;29803;51.048;4.686;2024-03-08T00:20:17;57.30;;;20.20;;
44139;SDS011;29803;51.048;4.686;2024-03-08T00:22:48;60.55;;;22.10;;
44139;SDS011;29803;51.048;4.686;2024-03-08T00:25:18;56.55;;;24.52;;
44139;SDS011;29803;51.048;4.686;2024-03-08T00:27:49;54.53;;;21.58;;
44139;SDS011;29803;51.048;4.686;2024-03-08T00:30:19;55.17;;;21.33;;
44139;SDS011;29803;51.048;4.686;2024-03-08T00:32:51;60.08;;;22.25;;
44139;SDS011;29803;51.048;4.686;2024-03-08T00:35:21;56.40;;;21.42;;
44139;SDS011;29803;51.048;4.686;2024-03-08T00:37:52;56.72;;;20.42;;
44139;SDS011;29803;51.048;4.686;2024-03-08T00:40:26;60.55;;;23.05;;
44139;SDS011;29803;51.048;4.686;2024-03-08T00:42:57;58.42;;;22.77;;
44139;SDS011;29803;51.048;4.686;2024-03-08T00:45:28;61.33;;;23.50;;
44139;SDS011;29803;51.048;4.686;2024-03-08T00:47:58;55.33;;;21.42;;
44139;SDS011;29803;51.048;4.686;2024-03-08T00:50:28;55.67;;;21.80;;
44139;SDS011;29803;51.048;4.686;2024-03-08T00:52:59;54.50;;;21.63;;
44139;SDS011;29803;51.048;4.686;2024-03-08T00:55:30;54.92;;;22.55;;
44139;SDS011;29803;51.048;4.686;2024-03-08T00:58:00;51.03;;;22.17;;
44139;SDS011;29803;51.048;4.686;2024-03-08T01:00:31;61.72;;;22.63;;
44139;SDS011;29803;51.048;4.686;2024-03-08T01:03:01;60.95;;;22.38;;
44139;SDS011;29803;51.048;4.686;2024-03-08T01:05:33;53.25;;;21.40;;
44139;SDS011;29803;51.048;4.686;2024-03-08T01:08:05;54.75;;;22.52;;
44139;SDS011;29803;51.048;4.686;2024-03-08T01:10:36;53.28;;;22.33;;
44139;SDS011;29803;51.048;4.686;2024-03-08T01:13:07;56.33;;;21.58;;
44139;SDS011;29803;51.048;4.686;2024-03-08T01:15:37;56.38;;;21.88;;
44139;SDS011;29803;51.048;4.686;2024-03-08T01:18:11;56.33;;;21.58;;
44139;SDS011;29803;51.048;4.686;2024-03-08T01:20:42;52.00;;;22.60;;
44139;SDS011;29803;51.048;4.686;2024-03-08T01:23:13;53.63;;;21.63;;
44139;SDS011;29803;51.048;4.686;2024-03-08T01:25:43;50.10;;;21.08;;
44139;SDS011;29803;51.048;4.686;2024-03-08T01:28:14;46.00;;;20.00;;
44139;SDS011;29803;51.048;4.686;2024-03-08T01:30:44;46.75;;;21.00;;
44139;SDS011;29803;51.048;4.686;2024-03-08T01:33:15;49.60;;;21.25;;
44139;SDS011;29803;51.048;4.686;2024-03-08T01:35:46;55.92;;;22.02;;
44139;SDS011;29803;51.048;4.686;2024-03-08T01:38:16;59.25;;;22.40;;
44139;SDS011;29803;51.048;4.686;2024-03-08T01:40:47;44.63;;;21.25;;
44139;SDS011;29803;51.048;4.686;2024-03-08T01:43:20;48.25;;;21.30;;
44139;SDS011;29803;51.048;4.686;2024-03-08T01:45:51;51.15;;;22.80;;
44139;SDS011;29803;51.048;4.686;2024-03-08T01:48:23;49.17;;;21.75;;
44139;SDS011;29803;51.048;4.686;2024-03-08T01:50:54;49.40;;;22.02;;
44139;SDS011;29803;51.048;4.686;2024-03-08T01:53:26;49.45;;;21.52;;
44139;SDS011;29803;51.048;4.686;2024-03-08T01:55:57;49.38;;;21.30;;
44139;SDS011;29803;51.048;4.686;2024-03-08T01:58:29;48.97;;;20.73;;
44139;SDS011;29803;51.048;4.686;2024-03-08T02:01:00;53.30;;;22.60;;
44139;SDS011;29803;51.048;4.686;2024-03-08T02:03:33;47.50;;;21.30;;
44139;SDS011;29803;51.048;4.686;2024-03-08T02:06:04;49.75;;;22.10;;
44139;SDS011;29803;51.048;4.686;2024-03-08T02:08:35;52.42;;;21.75;;
44139;SDS011;29803;51.048;4.686;2024-03-08T02:11:06;54.00;;;23.05;;
44139;SDS011;29803;51.048;4.686;2024-03-08T02:13:37;56.67;;;24.58;;
44139;SDS011;29803;51.048;4.686;2024-03-08T02:16:08;46.53;;;20.60;;
44139;SDS011;29803;51.048;4.686;2024-03-08T02:18:38;48.53;;;21.83;;
44139;SDS011;29803;51.048;4.686;2024-03-08T02:21:09;46.70;;;20.92;;
44139;SDS011;29803;51.048;4.686;2024-03-08T02:23:40;46.45;;;21.52;;
44139;SDS011;29803;51.048;4.686;2024-03-08T02:26:11;48.55;;;22.70;;
44139;SDS011;29803;51.048;4.686;2024-03-08T02:28:41;49.17;;;21.27;;
44139;SDS011;29803;51.048;4.686;2024-03-08T02:31:13;50.88;;;21.92;;
44139;SDS011;29803;51.048;4.686;2024-03-08T02:33:44;51.78;;;23.98;;
44139;SDS011;29803;51.048;4.686;2024-03-08T02:36:17;48.30;;;21.42;;
44139;SDS011;29803;51.048;4.686;2024-03-08T02:38:48;51.15;;;23.70;;
44139;SDS011;29803;51.048;4.686;2024-03-08T02:41:18;55.33;;;23.50;;
44139;SDS011;29803;51.048;4.686;2024-03-08T02:43:48;52.63;;;21.77;;
44139;SDS011;29803;51.048;4.686;2024-03-08T02:46:20;52.00;;;22.70;;
44139;SDS011;29803;51.048;4.686;2024-03-08T02:48:51;47.78;;;21.75;;
44139;SDS011;29803;51.048;4.686;2024-03-08T02:51:22;59.33;;;22.65;;
44139;SDS011;29803;51.048;4.686;2024-03-08T02:53:53;49.72;;;22.17;;
44139;SDS011;29803;51.048;4.686;2024-03-08T02:56:23;55.47;;;24.10;;
44139;SDS011;29803;51.048;4.686;2024-03-08T02:58:54;52.22;;;23.13;;
44139;SDS011;29803;51.048;4.686;2024-03-08T03:01:26;47.13;;;23.20;;
44139;SDS011;29803;51.048;4.686;2024-03-08T03:03:56;49.60;;;21.45;;
44139;SDS011;29803;51.048;4.686;2024-03-08T03:06:37;52.05;;;23.70;;
44139;SDS011;29803;51.048;4.686;2024-03-08T03:09:08;47.13;;;21.10;;
44139;SDS011;29803;51.048;4.686;2024-03-08T03:11:43;48.22;;;22.73;;
44139;SDS011;29803;51.048;4.686;2024-03-08T03:14:14;49.20;;;21.23;;
44139;SDS011;29803;51.048;4.686;2024-03-08T03:16:46;46.75;;;22.30;;
44139;SDS011;29803;51.048;4.686;2024-03-08T03:19:17;47.25;;;21.30;;
44139;SDS011;29803;51.048;4.686;2024-03-08T03:21:51;55.67;;;24.40;;
44139;SDS011;29803;51.048;4.686;2024-03-08T03:24:23;57.92;;;23.90;;
44139;SDS011;29803;51.048;4.686;2024-03-08T03:26:53;47.95;;;22.10;;
44139;SDS011;29803;51.048;4.686;2024-03-08T03:29:25;53.35;;;23.52;;
44139;SDS011;29803;51.048;4.686;2024-03-08T03:31:55;55.00;;;23.58;;
44139;SDS011;29803;51.048;4.686;2024-03-08T03:34:27;48.40;;;22.05;;
44139;SDS011;29803;51.048;4.686;2024-03-08T03:36:59;50.20;;;22.70;;
44139;SDS011;29803;51.048;4.686;2024-03-08T03:39:30;51.78;;;22.83;;
44139;SDS011;29803;51.048;4.686;2024-03-08T03:42:02;55.17;;;22.33;;
44139;SDS011;29803;51.048;4.686;2024-03-08T03:44:33;46.55;;;20.52;;
44139;SDS011;29803;51.048;4.686;2024-03-08T03:47:03;49.55;;;22.35;;
44139;SDS011;29803;51.048;4.686;2024-03-08T03:49:34;53.10;;;22.33;;
44139;SDS011;29803;51.048;4.686;2024-03-08T03:52:04;55.03;;;23.35;;
44139;SDS011;29803;51.048;4.686;2024-03-08T03:54:35;45.75;;;20.83;;
44139;SDS011;29803;51.048;4.686;2024-03-08T03:57:06;51.38;;;22.05;;
44139;SDS011;29803;51.048;4.686;2024-03-08T03:59:38;48.25;;;21.55;;
44139;SDS011;29803;51.048;4.686;2024-03-08T04:02:08;51.03;;;20.70;;
44139;SDS011;29803;51.048;4.686;2024-03-08T04:04:39;55.15;;;21.60;;
44139;SDS011;29803;51.048;4.686;2024-03-08T04:07:10;48.17;;;22.10;;
44139;SDS011;29803;51.048;4.686;2024-03-08T04:09:41;51.33;;;21.50;;
44139;SDS011;29803;51.048;4.686;2024-03-08T04:12:11;46.97;;;21.58;;
44139;SDS011;29803;51.048;4.686;2024-03-08T04:14:42;51.40;;;23.70;;
44139;SDS011;29803;51.048;4.686;2024-03-08T04:17:13;55.33;;;23.33;;
44139;SDS011;29803;51.048;4.686;2024-03-08T04:19:43;59.42;;;23.00;;
44139;SDS011;29803;51.048;4.686;2024-03-08T04:22:14;53.83;;;23.13;;
44139;SDS011;29803;51.048;4.686;2024-03-08T04:24:44;53.20;;;22.40;;
44139;SDS011;29803;51.048;4.686;2024-03-08T04:27:16;52.92;;;22.50;;
44139;SDS011;29803;51.048;4.686;2024-03-08T04:29:46;54.50;;;23.67;;
44139;SDS011;29803;51.048;4.686;2024-03-08T04:32:17;52.35;;;22.10;;
44139;SDS011;29803;51.048;4.686;2024-03-08T04:34:47;44.15;;;21.15;;
44139;SDS011;29803;51.048;4.686;2024-03-08T04:37:19;54.40;;;21.23;;
44139;SDS011;29803;51.048;4.686;2024-03-08T04:39:52;51.00;;;21.63;;
44139;SDS011;29803;51.048;4.686;2024-03-08T04:42:22;57.60;;;22.15;;
44139;SDS011;29803;51.048;4.686;2024-03-08T04:44:53;52.08;;;22.88;;
44139;SDS011;29803;51.048;4.686;2024-03-08T04:47:24;51.63;;;22.02;;
44139;SDS011;29803;51.048;4.686;2024-03-08T04:49:55;49.88;;;21.70;;
44139;SDS011;29803;51.048;4.686;2024-03-08T04:52:26;56.08;;;23.17;;
44139;SDS011;29803;51.048;4.686;2024-03-08T04:54:57;51.05;;;23.15;;
44139;SDS011;29803;51.048;4.686;2024-03-08T04:57:28;49.75;;;22.77;;
44139;SDS011;29803;51.048;4.686;2024-03-08T04:59:58;54.55;;;23.42;;
44139;SDS011;29803;51.048;4.686;2024-03-08T05:02:29;48.55;;;22.15;;
44139;SDS011;29803;51.048;4.686;2024-03-08T05:04:59;50.50;;;22.42;;
44139;SDS011;29803;51.048;4.686;2024-03-08T05:07:30;45.47;;;21.60;;
44139;SDS011;29803;51.048;4.686;2024-03-08T05:10:02;55.80;;;22.50;;
44139;SDS011;29803;51.048;4.686;2024-03-08T05:12:33;53.75;;;22.48;;
44139;SDS011;29803;51.048;4.686;2024-03-08T05:15:04;59.30;;;22.90;;
44139;SDS011;29803;51.048;4.686;2024-03-08T05:17:37;56.00;;;23.90;;
44139;SDS011;29803;51.048;4.686;2024-03-08T05:20:08;57.10;;;23.40;;
44139;SDS011;29803;51.048;4.686;2024-03-08T05:22:42;58.53;;;23.42;;
44139;SDS011;29803;51.048;4.686;2024-03-08T05:25:13;51.13;;;22.90;;
44139;SDS011;29803;51.048;4.686;2024-03-08T05:27:45;50.63;;;22.35;;
44139;SDS011;29803;51.048;4.686;2024-03-08T05:30:17;52.30;;;21.98;;
44139;SDS011;29803;51.048;4.686;2024-03-08T05:32:48;61.72;;;23.73;;
44139;SDS011;29803;51.048;4.686;2024-03-08T05:35:18;55.97;;;22.92;;
44139;SDS011;29803;51.048;4.686;2024-03-08T05:37:48;63.85;;;24.65;;
44139;SDS011;29803;51.048;4.686;2024-03-08T05:40:19;54.97;;;22.27;;
44139;SDS011;29803;51.048;4.686;2024-03-08T05:42:49;48.00;;;22.63;;
44139;SDS011;29803;51.048;4.686;2024-03-08T05:45:20;50.13;;;22.00;;
44139;SDS011;29803;51.048;4.686;2024-03-08T05:47:51;57.80;;;22.23;;
44139;SDS011;29803;51.048;4.686;2024-03-08T05:50:22;59.63;;;23.17;;
44139;SDS011;29803;51.048;4.686;2024-03-08T05:52:53;55.60;;;23.88;;
44139;SDS011;29803;51.048;4.686;2024-03-08T05:55:24;50.33;;;22.23;;
44139;SDS011;29803;51.048;4.686;2024-03-08T05:57:54;57.67;;;22.77;;
44139;SDS011;29803;51.048;4.686;2024-03-08T06:00:26;58.22;;;22.85;;
44139;SDS011;29803;51.048;4.686;2024-03-08T06:02:57;58.58;;;23.95;;
44139;SDS011;29803;51.048;4.686;2024-03-08T06:05:28;55.63;;;22.98;;
44139;SDS011;29803;51.048;4.686;2024-03-08T06:07:59;63.45;;;23.20;;
44139;SDS011;29803;51.048;4.686;2024-03-08T06:10:29;52.45;;;22.05;;
44139;SDS011;29803;51.048;4.686;2024-03-08T06:13:00;49.35;;;22.00;;
44139;SDS011;29803;51.048;4.686;2024-03-08T06:15:31;52.47;;;22.67;;
44139;SDS011;29803;51.048;4.686;2024-03-08T06:18:02;55.97;;;22.02;;
44139;SDS011;29803;51.048;4.686;2024-03-08T06:20:32;55.10;;;23.10;;
44139;SDS011;29803;51.048;4.686;2024-03-08T06:23:03;57.65;;;22.40;;
44139;SDS011;29803;51.048;4.686;2024-03-08T06:25:34;53.08;;;23.38;;
44139;SDS011;29803;51.048;4.686;2024-03-08T06:28:05;56.13;;;23.33;;
44139;SDS011;29803;51.048;4.686;2024-03-08T06:30:35;53.70;;;22.77;;
44139;SDS011;29803;51.048;4.686;2024-03-08T06:33:06;54.53;;;22.88;;
44139;SDS011;29803;51.048;4.686;2024-03-08T06:35:37;57.92;;;22.17;;
44139;SDS011;29803;51.048;4.686;2024-03-08T06:38:08;58.47;;;24.92;;
44139;SDS011;29803;51.048;4.686;2024-03-08T06:40:38;56.45;;;22.50;;
44139;SDS011;29803;51.048;4.686;2024-03-08T06:43:10;57.97;;;24.05;;
44139;SDS011;29803;51.048;4.686;2024-03-08T06:45:44;60.13;;;23.67;;
44139;SDS011;29803;51.048;4.686;2024-03-08T06:48:18;51.60;;;21.65;;
44139;SDS011;29803;51.048;4.686;2024-03-08T06:50:49;56.42;;;24.02;;
44139;SDS011;29803;51.048;4.686;2024-03-08T06:53:19;44.47;;;20.65;;
44139;SDS011;29803;51.048;4.686;2024-03-08T06:55:50;51.40;;;23.00;;
44139;SDS011;29803;51.048;4.686;2024-03-08T06:58:21;47.50;;;21.23;;
44139;SDS011;29803;51.048;4.686;2024-03-08T07:00:51;50.92;;;21.77;;
44139;SDS011;29803;51.048;4.686;2024-03-08T07:03:22;52.88;;;23.30;;
44139;SDS011;29803;51.048;4.686;2024-03-08T07:05:52;49.08;;;22.60;;
44139;SDS011;29803;51.048;4.686;2024-03-08T07:08:25;51.33;;;22.75;;
44139;SDS011;29803;51.048;4.686;2024-03-08T07:10:57;50.53;;;20.83;;
44139;SDS011;29803;51.048;4.686;2024-03-08T07:13:29;44.65;;;20.60;;
44139;SDS011;29803;51.048;4.686;2024-03-08T07:15:59;50.30;;;21.27;;
44139;SDS011;29803;51.048;4.686;2024-03-08T07:18:31;50.30;;;21.08;;
44139;SDS011;29803;51.048;4.686;2024-03-08T07:21:01;44.45;;;20.35;;
44139;SDS011;29803;51.048;4.686;2024-03-08T07:23:33;40.28;;;20.02;;
44139;SDS011;29803;51.048;4.686;2024-03-08T07:26:16;42.15;;;19.77;;
44139;SDS011;29803;51.048;4.686;2024-03-08T07:28:48;42.22;;;20.00;;
44139;SDS011;29803;51.048;4.686;2024-03-08T07:31:19;38.30;;;19.15;;
44139;SDS011;29803;51.048;4.686;2024-03-08T07:33:55;42.15;;;21.10;;
44139;SDS011;29803;51.048;4.686;2024-03-08T07:36:25;39.72;;;19.50;;
44139;SDS011;29803;51.048;4.686;2024-03-08T07:38:56;45.22;;;20.23;;
44139;SDS011;29803;51.048;4.686;2024-03-08T07:41:27;38.90;;;19.20;;
44139;SDS011;29803;51.048;4.686;2024-03-08T07:44:00;43.28;;;18.55;;
44139;SDS011;29803;51.048;4.686;2024-03-08T07:46:33;35.13;;;17.85;;
44139;SDS011;29803;51.048;4.686;2024-03-08T07:49:04;36.38;;;18.40;;
44139;SDS011;29803;51.048;4.686;2024-03-08T07:51:36;32.38;;;16.88;;
44139;SDS011;29803;51.048;4.686;2024-03-08T07:54:08;35.40;;;17.63;;
44139;SDS011;29803;51.048;4.686;2024-03-08T07:56:39;39.17;;;18.65;;
44139;SDS011;29803;51.048;4.686;2024-03-08T07:59:10;38.08;;;18.67;;
44139;SDS011;29803;51.048;4.686;2024-03-08T08:01:42;34.90;;;16.92;;
44139;SDS011;29803;51.048;4.686;2024-03-08T08:04:14;35.65;;;17.90;;
44139;SDS011;29803;51.048;4.686;2024-03-08T08:06:48;37.22;;;17.85;;
44139;SDS011;29803;51.048;4.686;2024-03-08T08:09:18;35.95;;;17.65;;
44139;SDS011;29803;51.048;4.686;2024-03-08T08:11:58;35.97;;;17.52;;
44139;SDS011;29803;51.048;4.686;2024-03-08T08:14:28;40.17;;;18.83;;
44139;SDS011;29803;51.048;4.686;2024-03-08T08:16:59;36.75;;;18.58;;
44139;SDS011;29803;51.048;4.686;2024-03-08T08:19:34;38.83;;;18.40;;
44139;SDS011;29803;51.048;4.686;2024-03-08T08:22:05;34.60;;;17.50;;
44139;SDS011;29803;51.048;4.686;2024-03-08T08:24:38;48.03;;;18.00;;
44139;SDS011;29803;51.048;4.686;2024-03-08T08:27:10;33.65;;;17.83;;
44139;SDS011;29803;51.048;4.686;2024-03-08T08:29:42;33.97;;;17.73;;
44139;SDS011;29803;51.048;4.686;2024-03-08T08:32:13;36.75;;;18.23;;
44139;SDS011;29803;51.048;4.686;2024-03-08T08:34:43;32.58;;;17.67;;
44139;SDS011;29803;51.048;4.686;2024-03-08T08:37:14;33.30;;;16.85;;
44139;SDS011;29803;51.048;4.686;2024-03-08T08:39:46;34.88;;;17.75;;
44139;SDS011;29803;51.048;4.686;2024-03-08T08:42:17;35.88;;;17.05;;
44139;SDS011;29803;51.048;4.686;2024-03-08T08:44:48;31.48;;;17.17;;
44139;SDS011;29803;51.048;4.686;2024-03-08T08:47:20;32.10;;;17.35;;
44139;SDS011;29803;51.048;4.686;2024-03-08T08:49:51;29.48;;;16.15;;
44139;SDS011;29803;51.048;4.686;2024-03-08T08:52:21;34.70;;;17.95;;
44139;SDS011;29803;51.048;4.686;2024-03-08T08:54:53;32.17;;;16.52;;
44139;SDS011;29803;51.048;4.686;2024-03-08T08:57:23;37.58;;;16.42;;
44139;SDS011;29803;51.048;4.686;2024-03-08T08:59:54;32.95;;;16.63;;
44139;SDS011;29803;51.048;4.686;2024-03-08T09:02:25;33.35;;;16.98;;
44139;SDS011;29803;51.048;4.686;2024-03-08T09:04:56;31.88;;;17.02;;
44139;SDS011;29803;51.048;4.686;2024-03-08T09:07:26;28.55;;;15.88;;
44139;SDS011;29803;51.048;4.686;2024-03-08T09:09:57;29.38;;;15.65;;
44139;SDS011;29803;51.048;4.686;2024-03-08T09:12:28;28.15;;;15.88;;
44139;SDS011;29803;51.048;4.686;2024-03-08T09:14:58;31.73;;;15.93;;
44139;SDS011;29803;51.048;4.686;2024-03-08T09:17:29;34.40;;;16.10;;
44139;SDS011;29803;51.048;4.686;2024-03-08T09:20:00;32.28;;;15.80;;
44139;SDS011;29803;51.048;4.686;2024-03-08T09:22:30;28.83;;;15.82;;
44139;SDS011;29803;51.048;4.686;2024-03-08T09:25:01;27.33;;;15.43;;
44139;SDS011;29803;51.048;4.686;2024-03-08T09:27:32;30.45;;;15.85;;
44139;SDS011;29803;51.048;4.686;2024-03-08T09:30:02;30.92;;;15.80;;
44139;SDS011;29803;51.048;4.686;2024-03-08T09:32:34;33.17;;;15.60;;
44139;SDS011;29803;51.048;4.686;2024-03-08T09:35:05;33.78;;;16.20;;
44139;SDS011;29803;51.048;4.686;2024-03-08T09:37:37;28.25;;;15.15;;
44139;SDS011;29803;51.048;4.686;2024-03-08T09:40:07;28.48;;;15.27;;
44139;SDS011;29803;51.048;4.686;2024-03-08T09:42:39;30.55;;;15.23;;
44139;SDS011;29803;51.048;4.686;2024-03-08T09:45:11;28.35;;;14.40;;
44139;SDS011;29803;51.048;4.686;2024-03-08T09:47:42;28.10;;;14.50;;
44139;SDS011;29803;51.048;4.686;2024-03-08T09:50:14;25.27;;;14.15;;
44139;SDS011;29803;51.048;4.686;2024-03-08T09:52:47;27.92;;;14.30;;
44139;SDS011;29803;51.048;4.686;2024-03-08T09:55:19;31.27;;;14.48;;
44139;SDS011;29803;51.048;4.686;2024-03-08T09:57:52;29.67;;;15.23;;
44139;SDS011;29803;51.048;4.686;2024-03-08T10:00:43;27.98;;;14.00;;
44139;SDS011;29803;51.048;4.686;2024-03-08T10:03:14;28.42;;;14.93;;
44139;SDS011;29803;51.048;4.686;2024-03-08T10:05:45;28.30;;;13.80;;
44139;SDS011;29803;51.048;4.686;2024-03-08T10:08:16;25.20;;;13.98;;
44139;SDS011;29803;51.048;4.686;2024-03-08T10:10:47;27.15;;;14.15;;
44139;SDS011;29803;51.048;4.686;2024-03-08T10:13:17;27.27;;;14.73;;
44139;SDS011;29803;51.048;4.686;2024-03-08T10:15:49;26.52;;;14.43;;
44139;SDS011;29803;51.048;4.686;2024-03-08T10:18:21;25.80;;;14.15;;
44139;SDS011;29803;51.048;4.686;2024-03-08T10:21:07;30.20;;;14.88;;
44139;SDS011;29803;51.048;4.686;2024-03-08T10:23:40;28.67;;;14.48;;
44139;SDS011;29803;51.048;4.686;2024-03-08T10:26:13;25.45;;;13.48;;
44139;SDS011;29803;51.048;4.686;2024-03-08T10:28:47;26.55;;;13.82;;
44139;SDS011;29803;51.048;4.686;2024-03-08T10:31:19;29.95;;;14.77;;
44139;SDS011;29803;51.048;4.686;2024-03-08T10:33:50;31.52;;;14.45;;
44139;SDS011;29803;51.048;4.686;2024-03-08T10:36:21;31.58;;;14.07;;
44139;SDS011;29803;51.048;4.686;2024-03-08T10:38:51;30.20;;;14.07;;
44139;SDS011;29803;51.048;4.686;2024-03-08T10:41:24;27.58;;;13.52;;
44139;SDS011;29803;51.048;4.686;2024-03-08T10:49:38;28.50;;;13.95;;
44139;SDS011;29803;51.048;4.686;2024-03-08T10:52:17;25.88;;;12.90;;
44139;SDS011;29803;51.048;4.686;2024-03-08T10:54:49;28.13;;;13.35;;
44139;SDS011;29803;51.048;4.686;2024-03-08T10:57:21;30.30;;;13.60;;
44139;SDS011;29803;51.048;4.686;2024-03-08T10:59:54;27.55;;;13.63;;
44139;SDS011;29803;51.048;4.686;2024-03-08T11:02:25;32.67;;;14.07;;
44139;SDS011;29803;51.048;4.686;2024-03-08T11:04:57;27.02;;;14.13;;
44139;SDS011;29803;51.048;4.686;2024-03-08T11:07:27;25.55;;;13.75;;
44139;SDS011;29803;51.048;4.686;2024-03-08T11:09:59;26.73;;;14.00;;
44139;SDS011;29803;51.048;4.686;2024-03-08T11:12:29;25.30;;;13.23;;
44139;SDS011;29803;51.048;4.686;2024-03-08T11:15:10;27.13;;;13.20;;
44139;SDS011;29803;51.048;4.686;2024-03-08T11:17:45;26.63;;;13.80;;
44139;SDS011;29803;51.048;4.686;2024-03-08T11:20:18;25.92;;;13.57;;
44139;SDS011;29803;51.048;4.686;2024-03-08T11:22:54;23.27;;;13.35;;
44139;SDS011;29803;51.048;4.686;2024-03-08T11:25:32;24.58;;;13.02;;
44139;SDS011;29803;51.048;4.686;2024-03-08T11:33:46;24.35;;;12.75;;
44139;SDS011;29803;51.048;4.686;2024-03-08T11:36:20;22.48;;;13.10;;
44139;SDS011;29803;51.048;4.686;2024-03-08T11:38:52;26.63;;;12.82;;
44139;SDS011;29803;51.048;4.686;2024-03-08T11:41:25;21.58;;;12.43;;
44139;SDS011;29803;51.048;4.686;2024-03-08T11:44:03;25.10;;;12.48;;
44139;SDS011;29803;51.048;4.686;2024-03-08T11:46:35;23.70;;;13.30;;
44139;SDS011;29803;51.048;4.686;2024-03-08T11:49:05;30.92;;;12.95;;
44139;SDS011;29803;51.048;4.686;2024-03-08T11:51:36;22.50;;;12.30;;
44139;SDS011;29803;51.048;4.686;2024-03-08T11:54:11;25.92;;;13.13;;
44139;SDS011;29803;51.048;4.686;2024-03-08T11:56:44;22.83;;;12.88;;
44139;SDS011;29803;51.048;4.686;2024-03-08T11:59:17;30.10;;;13.77;;
44139;SDS011;29803;51.048;4.686;2024-03-08T12:02:02;25.70;;;12.73;;
44139;SDS011;29803;51.048;4.686;2024-03-08T12:04:34;25.33;;;12.75;;
44139;SDS011;29803;51.048;4.686;2024-03-08T12:07:09;29.90;;;13.65;;
44139;SDS011;29803;51.048;4.686;2024-03-08T12:09:42;27.08;;;13.13;;
44139;SDS011;29803;51.048;4.686;2024-03-08T12:12:17;24.67;;;13.05;;
44139;SDS011;29803;51.048;4.686;2024-03-08T12:14:47;24.17;;;13.25;;
44139;SDS011;29803;51.048;4.686;2024-03-08T12:17:18;27.52;;;14.18;;
44139;SDS011;29803;51.048;4.686;2024-03-08T12:19:49;26.02;;;12.60;;
44139;SDS011;29803;51.048;4.686;2024-03-08T12:22:24;21.27;;;12.02;;
44139;SDS011;29803;51.048;4.686;2024-03-08T12:25:03;23.13;;;14.02;;
44139;SDS011;29803;51.048;4.686;2024-03-08T12:27:36;26.50;;;13.30;;
44139;SDS011;29803;51.048;4.686;2024-03-08T12:30:15;28.70;;;13.48;;
44139;SDS011;29803;51.048;4.686;2024-03-08T12:32:54;30.55;;;13.90;;
44139;SDS011;29803;51.048;4.686;2024-03-08T12:35:28;24.10;;;13.38;;
44139;SDS011;29803;51.048;4.686;2024-03-08T12:37:59;23.98;;;13.00;;
44139;SDS011;29803;51.048;4.686;2024-03-08T12:40:30;24.20;;;13.63;;
44139;SDS011;29803;51.048;4.686;2024-03-08T12:43:02;24.38;;;13.55;;
44139;SDS011;29803;51.048;4.686;2024-03-08T12:45:33;28.02;;;13.98;;
44139;SDS011;29803;51.048;4.686;2024-03-08T12:48:04;24.63;;;13.45;;
44139;SDS011;29803;51.048;4.686;2024-03-08T12:50:45;26.70;;;13.35;;
44139;SDS011;29803;51.048;4.686;2024-03-08T12:53:18;23.27;;;13.35;;
44139;SDS011;29803;51.048;4.686;2024-03-08T12:55:49;28.25;;;14.98;;
44139;SDS011;29803;51.048;4.686;2024-03-08T12:58:20;23.55;;;13.10;;
44139;SDS011;29803;51.048;4.686;2024-03-08T13:00:52;26.60;;;13.73;;
44139;SDS011;29803;51.048;4.686;2024-03-08T13:03:22;28.27;;;14.00;;
44139;SDS011;29803;51.048;4.686;2024-03-08T13:05:53;28.30;;;14.32;;
44139;SDS011;29803;51.048;4.686;2024-03-08T13:08:23;29.55;;;14.50;;
44139;SDS011;29803;51.048;4.686;2024-03-08T13:10:56;24.95;;;13.43;;
44139;SDS011;29803;51.048;4.686;2024-03-08T13:13:28;26.52;;;13.70;;
44139;SDS011;29803;51.048;4.686;2024-03-08T13:15:59;27.27;;;14.10;;
44139;SDS011;29803;51.048;4.686;2024-03-08T13:18:31;21.50;;;12.65;;
44139;SDS011;29803;51.048;4.686;2024-03-08T13:21:02;25.38;;;12.80;;
44139;SDS011;29803;51.048;4.686;2024-03-08T13:23:40;28.95;;;13.35;;
44139;SDS011;29803;51.048;4.686;2024-03-08T13:26:15;23.73;;;13.13;;
44139;SDS011;29803;51.048;4.686;2024-03-08T13:28:48;30.88;;;13.43;;
44139;SDS011;29803;51.048;4.686;2024-03-08T13:31:23;25.02;;;13.48;;
44139;SDS011;29803;51.048;4.686;2024-03-08T13:33:54;27.85;;;13.43;;
44139;SDS011;29803;51.048;4.686;2024-03-08T13:36:28;26.10;;;13.73;;
44139;SDS011;29803;51.048;4.686;2024-03-08T13:39:09;23.60;;;12.18;;
44139;SDS011;29803;51.048;4.686;2024-03-08T13:41:48;27.48;;;11.90;;
44139;SDS011;29803;51.048;4.686;2024-03-08T13:44:21;26.23;;;13.30;;
44139;SDS011;29803;51.048;4.686;2024-03-08T13:46:51;25.27;;;13.77;;
44139;SDS011;29803;51.048;4.686;2024-03-08T13:49:22;23.55;;;13.52;;
44139;SDS011;29803;51.048;4.686;2024-03-08T13:51:56;25.05;;;13.25;;
44139;SDS011;29803;51.048;4.686;2024-03-08T13:54:29;28.40;;;13.43;;
44139;SDS011;29803;51.048;4.686;2024-03-08T13:57:01;23.95;;;13.15;;
44139;SDS011;29803;51.048;4.686;2024-03-08T13:59:34;26.58;;;13.93;;
44139;SDS011;29803;51.048;4.686;2024-03-08T14:02:06;25.92;;;13.45;;
44139;SDS011;29803;51.048;4.686;2024-03-08T14:04:37;26.75;;;13.82;;
44139;SDS011;29803;51.048;4.686;2024-03-08T14:07:08;26.13;;;13.23;;
44139;SDS011;29803;51.048;4.686;2024-03-08T14:09:39;26.88;;;13.95;;
44139;SDS011;29803;51.048;4.686;2024-03-08T14:12:13;24.88;;;13.38;;
44139;SDS011;29803;51.048;4.686;2024-03-08T14:14:44;29.55;;;13.73;;
44139;SDS011;29803;51.048;4.686;2024-03-08T14:17:15;23.10;;;12.32;;
44139;SDS011;29803;51.048;4.686;2024-03-08T14:19:47;29.52;;;13.23;;
44139;SDS011;29803;51.048;4.686;2024-03-08T14:22:19;24.05;;;13.80;;
44139;SDS011;29803;51.048;4.686;2024-03-08T14:24:50;29.30;;;13.85;;
44139;SDS011;29803;51.048;4.686;2024-03-08T14:27:22;29.10;;;13.77;;
44139;SDS011;29803;51.048;4.686;2024-03-08T14:29:53;23.23;;;13.40;;
44139;SDS011;29803;51.048;4.686;2024-03-08T14:32:25;30.98;;;14.38;;
44139;SDS011;29803;51.048;4.686;2024-03-08T14:34:56;23.77;;;12.73;;
44139;SDS011;29803;51.048;4.686;2024-03-08T14:37:28;24.17;;;12.63;;
44139;SDS011;29803;51.048;4.686;2024-03-08T14:39:59;31.30;;;14.43;;
44139;SDS011;29803;51.048;4.686;2024-03-08T14:42:30;27.08;;;13.98;;
44139;SDS011;29803;51.048;4.686;2024-03-08T14:45:01;24.30;;;13.30;;
44139;SDS011;29803;51.048;4.686;2024-03-08T14:47:32;29.20;;;13.02;;
44139;SDS011;29803;51.048;4.686;2024-03-08T14:50:04;25.52;;;13.68;;
44139;SDS011;29803;51.048;4.686;2024-03-08T14:52:37;24.05;;;13.50;;
44139;SDS011;29803;51.048;4.686;2024-03-08T14:55:10;26.23;;;13.38;;
44139;SDS011;29803;51.048;4.686;2024-03-08T14:57:44;30.42;;;14.45;;